sensor_id;sensor_type;location;lat;lon;timestamp;P1;durP1;ratioP1;P2;durP2;ratioP2
14738;SDS011;7461;52.440;13.540;2024-03-06T00:01:27;37.58;;;33.97;;
14738;SDS011;7461;52.440;13.540;2024-03-06T00:03:54;35.95;;;32.53;;
14738;SDS011;7461;52.440;13.540;2024-03-06T00:06:22;40.17;;;36.70;;
14738;SDS011;7461;52.440;13.540;2024-03-06T00:08:49;40.45;;;36.78;;
14738;SDS011;7461;52.440;13.540;2024-03-06T00:11:16;35.25;;;32.15;;
14738;SDS011;7461;52.440;13.540;2024-03-06T00:13:44;38.53;;;35.25;;
14738;SDS011;7461;52.440;13.540;2024-03-06T00:16:14;36.05;;;32.55;;
14738;SDS011;7461;52.440;13.540;2024-03-06T00:18:41;35.53;;;32.47;;
14738;SDS011;7461;52.440;13.540;2024-03-06T00:21:08;37.85;;;34.67;;
14738;SDS011;7461;52.440;13.540;2024-03-06T00:23:37;38.38;;;34.72;;
14738;SDS011;7461;52.440;13.540;2024-03-06T00:26:04;38.67;;;35.33;;
14738;SDS011;7461;52.440;13.540;2024-03-06T00:28:32;35.88;;;32.60;;
14738;SDS011;7461;52.440;13.540;2024-03-06T00:30:59;38.10;;;34.60;;
14738;SDS011;7461;52.440;13.540;2024-03-06T00:33:27;36.22;;;32.80;;
14738;SDS011;7461;52.440;13.540;2024-03-06T00:35:55;38.90;;;35.25;;
14738;SDS011;7461;52.440;13.540;2024-03-06T00:38:22;39.28;;;35.63;;
14738;SDS011;7461;52.440;13.540;2024-03-06T00:40:49;42.00;;;38.10;;
14738;SDS011;7461;52.440;13.540;2024-03-06T00:43:17;39.67;;;36.15;;
14738;SDS011;7461;52.440;13.540;2024-03-06T00:45:44;37.38;;;34.28;;
14738;SDS011;7461;52.440;13.540;2024-03-06T00:48:11;36.72;;;33.45;;
14738;SDS011;7461;52.440;13.540;2024-03-06T00:50:40;41.70;;;37.70;;
14738;SDS011;7461;52.440;13.540;2024-03-06T00:53:07;38.65;;;34.85;;
14738;SDS011;7461;52.440;13.540;2024-03-06T00:55:35;40.45;;;36.40;;
14738;SDS011;7461;52.440;13.540;2024-03-06T00:58:02;41.55;;;37.55;;
14738;SDS011;7461;52.440;13.540;2024-03-06T01:00:31;39.22;;;35.90;;
14738;SDS011;7461;52.440;13.540;2024-03-06T01:02:58;41.03;;;35.90;;
14738;SDS011;7461;52.440;13.540;2024-03-06T01:05:26;38.25;;;35.10;;
14738;SDS011;7461;52.440;13.540;2024-03-06T01:07:54;41.92;;;38.03;;
14738;SDS011;7461;52.440;13.540;2024-03-06T01:10:24;40.35;;;36.60;;
14738;SDS011;7461;52.440;13.540;2024-03-06T01:12:51;40.42;;;36.60;;
14738;SDS011;7461;52.440;13.540;2024-03-06T01:15:18;41.40;;;37.92;;
14738;SDS011;7461;52.440;13.540;2024-03-06T01:17:46;41.13;;;37.35;;
14738;SDS011;7461;52.440;13.540;2024-03-06T01:20:13;37.85;;;34.40;;
14738;SDS011;7461;52.440;13.540;2024-03-06T01:22:40;40.83;;;37.20;;
14738;SDS011;7461;52.440;13.540;2024-03-06T01:25:09;38.58;;;35.15;;
14738;SDS011;7461;52.440;13.540;2024-03-06T01:27:36;37.22;;;33.75;;
14738;SDS011;7461;52.440;13.540;2024-03-06T01:30:04;36.08;;;32.90;;
14738;SDS011;7461;52.440;13.540;2024-03-06T01:32:32;35.97;;;33.03;;
14738;SDS011;7461;52.440;13.540;2024-03-06T01:34:59;37.67;;;34.15;;
14738;SDS011;7461;52.440;13.540;2024-03-06T01:37:26;38.22;;;34.90;;
14738;SDS011;7461;52.440;13.540;2024-03-06T01:39:53;36.88;;;33.25;;
14738;SDS011;7461;52.440;13.540;2024-03-06T01:42:22;37.85;;;34.50;;
14738;SDS011;7461;52.440;13.540;2024-03-06T01:44:50;37.95;;;34.75;;
14738;SDS011;7461;52.440;13.540;2024-03-06T01:47:17;36.45;;;32.78;;
14738;SDS011;7461;52.440;13.540;2024-03-06T01:49:44;36.42;;;33.30;;
14738;SDS011;7461;52.440;13.540;2024-03-06T01:52:13;35.65;;;32.40;;
14738;SDS011;7461;52.440;13.540;2024-03-06T01:54:40;39.35;;;35.72;;
14738;SDS011;7461;52.440;13.540;2024-03-06T01:57:08;37.20;;;33.95;;
14738;SDS011;7461;52.440;13.540;2024-03-06T01:59:36;34.83;;;31.65;;
14738;SDS011;7461;52.440;13.540;2024-03-06T02:02:04;39.10;;;35.50;;
14738;SDS011;7461;52.440;13.540;2024-03-06T02:04:32;39.95;;;31.88;;
14738;SDS011;7461;52.440;13.540;2024-03-06T02:07:00;35.65;;;32.15;;
14738;SDS011;7461;52.440;13.540;2024-03-06T02:09:28;36.42;;;32.88;;
14738;SDS011;7461;52.440;13.540;2024-03-06T02:11:55;35.47;;;32.08;;
14738;SDS011;7461;52.440;13.540;2024-03-06T02:14:23;38.05;;;34.60;;
14738;SDS011;7461;52.440;13.540;2024-03-06T02:16:51;35.95;;;32.75;;
14738;SDS011;7461;52.440;13.540;2024-03-06T02:19:19;38.65;;;34.88;;
14738;SDS011;7461;52.440;13.540;2024-03-06T02:21:48;35.38;;;32.20;;
14738;SDS011;7461;52.440;13.540;2024-03-06T02:24:15;36.45;;;33.15;;
14738;SDS011;7461;52.440;13.540;2024-03-06T02:26:42;34.83;;;31.52;;
14738;SDS011;7461;52.440;13.540;2024-03-06T02:29:09;35.42;;;32.00;;
14738;SDS011;7461;52.440;13.540;2024-03-06T02:31:37;36.38;;;33.17;;
14738;SDS011;7461;52.440;13.540;2024-03-06T02:34:04;37.55;;;34.05;;
14738;SDS011;7461;52.440;13.540;2024-03-06T02:36:31;34.70;;;31.63;;
14738;SDS011;7461;52.440;13.540;2024-03-06T02:39:00;36.15;;;33.03;;
14738;SDS011;7461;52.440;13.540;2024-03-06T02:41:33;36.45;;;33.22;;
14738;SDS011;7461;52.440;13.540;2024-03-06T02:44:01;36.90;;;33.40;;
14738;SDS011;7461;52.440;13.540;2024-03-06T02:46:29;35.15;;;32.15;;
14738;SDS011;7461;52.440;13.540;2024-03-06T02:48:56;38.83;;;35.22;;
14738;SDS011;7461;52.440;13.540;2024-03-06T02:51:23;35.13;;;32.17;;
14738;SDS011;7461;52.440;13.540;2024-03-06T02:53:50;36.70;;;33.38;;
14738;SDS011;7461;52.440;13.540;2024-03-06T02:56:19;34.17;;;30.95;;
14738;SDS011;7461;52.440;13.540;2024-03-06T02:58:47;36.47;;;32.97;;
14738;SDS011;7461;52.440;13.540;2024-03-06T03:01:14;35.20;;;31.70;;
14738;SDS011;7461;52.440;13.540;2024-03-06T03:03:42;36.20;;;33.08;;
14738;SDS011;7461;52.440;13.540;2024-03-06T03:06:12;35.85;;;32.67;;
14738;SDS011;7461;52.440;13.540;2024-03-06T03:08:39;34.28;;;30.98;;
14738;SDS011;7461;52.440;13.540;2024-03-06T03:11:06;32.63;;;30.02;;
14738;SDS011;7461;52.440;13.540;2024-03-06T03:13:36;34.67;;;31.48;;
14738;SDS011;7461;52.440;13.540;2024-03-06T03:16:04;35.03;;;31.95;;
14738;SDS011;7461;52.440;13.540;2024-03-06T03:18:32;35.47;;;32.38;;
14738;SDS011;7461;52.440;13.540;2024-03-06T03:20:59;36.03;;;32.38;;
14738;SDS011;7461;52.440;13.540;2024-03-06T03:23:26;38.22;;;34.83;;
14738;SDS011;7461;52.440;13.540;2024-03-06T03:25:54;38.42;;;35.08;;
14738;SDS011;7461;52.440;13.540;2024-03-06T03:28:21;36.97;;;33.60;;
14738;SDS011;7461;52.440;13.540;2024-03-06T03:30:50;35.58;;;32.03;;
14738;SDS011;7461;52.440;13.540;2024-03-06T03:33:17;34.65;;;31.25;;
14738;SDS011;7461;52.440;13.540;2024-03-06T03:35:44;35.42;;;32.40;;
14738;SDS011;7461;52.440;13.540;2024-03-06T03:38:11;35.97;;;32.72;;
14738;SDS011;7461;52.440;13.540;2024-03-06T03:40:39;33.13;;;30.17;;
14738;SDS011;7461;52.440;13.540;2024-03-06T03:43:07;35.42;;;32.08;;
14738;SDS011;7461;52.440;13.540;2024-03-06T03:45:34;35.67;;;32.45;;
14738;SDS011;7461;52.440;13.540;2024-03-06T03:48:04;36.58;;;33.00;;
14738;SDS011;7461;52.440;13.540;2024-03-06T03:50:31;35.92;;;32.47;;
14738;SDS011;7461;52.440;13.540;2024-03-06T03:52:59;33.58;;;30.85;;
14738;SDS011;7461;52.440;13.540;2024-03-06T03:55:27;36.53;;;33.42;;
14738;SDS011;7461;52.440;13.540;2024-03-06T03:57:54;32.97;;;29.95;;
14738;SDS011;7461;52.440;13.540;2024-03-06T04:00:21;33.22;;;29.88;;
14738;SDS011;7461;52.440;13.540;2024-03-06T04:02:49;32.17;;;29.15;;
14738;SDS011;7461;52.440;13.540;2024-03-06T04:05:18;32.70;;;29.88;;
14738;SDS011;7461;52.440;13.540;2024-03-06T04:07:46;35.10;;;31.55;;
14738;SDS011;7461;52.440;13.540;2024-03-06T04:10:13;33.78;;;30.83;;
14738;SDS011;7461;52.440;13.540;2024-03-06T04:12:41;34.58;;;31.30;;
14738;SDS011;7461;52.440;13.540;2024-03-06T04:15:08;33.67;;;30.70;;
14738;SDS011;7461;52.440;13.540;2024-03-06T04:17:36;35.10;;;31.90;;
14738;SDS011;7461;52.440;13.540;2024-03-06T04:20:03;35.47;;;32.17;;
14738;SDS011;7461;52.440;13.540;2024-03-06T04:22:32;35.70;;;32.75;;
14738;SDS011;7461;52.440;13.540;2024-03-06T04:25:00;34.65;;;31.58;;
14738;SDS011;7461;52.440;13.540;2024-03-06T04:27:29;37.35;;;33.88;;
14738;SDS011;7461;52.440;13.540;2024-03-06T04:29:56;35.50;;;31.95;;
14738;SDS011;7461;52.440;13.540;2024-03-06T04:32:23;33.05;;;29.92;;
14738;SDS011;7461;52.440;13.540;2024-03-06T04:34:51;35.90;;;32.28;;
14738;SDS011;7461;52.440;13.540;2024-03-06T04:37:18;32.47;;;29.35;;
14738;SDS011;7461;52.440;13.540;2024-03-06T04:39:47;33.72;;;30.63;;
14738;SDS011;7461;52.440;13.540;2024-03-06T04:42:15;33.70;;;30.42;;
14738;SDS011;7461;52.440;13.540;2024-03-06T04:44:42;34.97;;;31.40;;
14738;SDS011;7461;52.440;13.540;2024-03-06T04:47:09;34.00;;;30.63;;
14738;SDS011;7461;52.440;13.540;2024-03-06T04:49:37;33.55;;;30.33;;
14738;SDS011;7461;52.440;13.540;2024-03-06T04:52:04;33.80;;;30.90;;
14738;SDS011;7461;52.440;13.540;2024-03-06T04:54:31;35.78;;;32.50;;
14738;SDS011;7461;52.440;13.540;2024-03-06T04:57:00;33.97;;;30.75;;
14738;SDS011;7461;52.440;13.540;2024-03-06T04:59:27;32.88;;;30.02;;
14738;SDS011;7461;52.440;13.540;2024-03-06T05:01:55;34.47;;;31.35;;
14738;SDS011;7461;52.440;13.540;2024-03-06T05:04:22;34.00;;;31.08;;
14738;SDS011;7461;52.440;13.540;2024-03-06T05:06:49;33.50;;;30.60;;
14738;SDS011;7461;52.440;13.540;2024-03-06T05:09:16;32.28;;;29.00;;
14738;SDS011;7461;52.440;13.540;2024-03-06T05:11:44;32.70;;;29.98;;
14738;SDS011;7461;52.440;13.540;2024-03-06T05:14:12;37.13;;;33.95;;
14738;SDS011;7461;52.440;13.540;2024-03-06T05:16:39;32.03;;;29.27;;
14738;SDS011;7461;52.440;13.540;2024-03-06T05:19:07;33.08;;;30.30;;
14738;SDS011;7461;52.440;13.540;2024-03-06T05:21:35;37.40;;;33.72;;
14738;SDS011;7461;52.440;13.540;2024-03-06T05:24:03;34.03;;;30.85;;
14738;SDS011;7461;52.440;13.540;2024-03-06T05:26:30;33.97;;;30.85;;
14738;SDS011;7461;52.440;13.540;2024-03-06T05:28:58;33.13;;;30.05;;
14738;SDS011;7461;52.440;13.540;2024-03-06T05:31:26;34.53;;;31.02;;
14738;SDS011;7461;52.440;13.540;2024-03-06T05:33:54;34.00;;;30.98;;
14738;SDS011;7461;52.440;13.540;2024-03-06T05:36:21;31.25;;;28.02;;
14738;SDS011;7461;52.440;13.540;2024-03-06T05:38:48;34.83;;;31.70;;
14738;SDS011;7461;52.440;13.540;2024-03-06T05:41:15;36.05;;;32.88;;
14738;SDS011;7461;52.440;13.540;2024-03-06T05:43:44;36.90;;;33.30;;
14738;SDS011;7461;52.440;13.540;2024-03-06T05:46:11;34.92;;;31.77;;
14738;SDS011;7461;52.440;13.540;2024-03-06T05:48:40;35.95;;;32.78;;
14738;SDS011;7461;52.440;13.540;2024-03-06T05:51:07;36.95;;;33.63;;
14738;SDS011;7461;52.440;13.540;2024-03-06T05:53:36;36.92;;;33.10;;
14738;SDS011;7461;52.440;13.540;2024-03-06T05:56:06;39.75;;;36.28;;
14738;SDS011;7461;52.440;13.540;2024-03-06T05:58:33;37.00;;;33.83;;
14738;SDS011;7461;52.440;13.540;2024-03-06T06:01:01;39.05;;;35.40;;
14738;SDS011;7461;52.440;13.540;2024-03-06T06:03:29;39.15;;;35.45;;
14738;SDS011;7461;52.440;13.540;2024-03-06T06:05:58;36.05;;;32.75;;
14738;SDS011;7461;52.440;13.540;2024-03-06T06:08:25;43.08;;;36.05;;
14738;SDS011;7461;52.440;13.540;2024-03-06T06:10:52;37.05;;;33.75;;
14738;SDS011;7461;52.440;13.540;2024-03-06T06:13:20;39.03;;;35.50;;
14738;SDS011;7461;52.440;13.540;2024-03-06T06:15:48;40.22;;;36.33;;
14738;SDS011;7461;52.440;13.540;2024-03-06T06:18:15;39.33;;;35.30;;
14738;SDS011;7461;52.440;13.540;2024-03-06T06:20:42;42.03;;;38.00;;
14738;SDS011;7461;52.440;13.540;2024-03-06T06:23:11;41.35;;;37.25;;
14738;SDS011;7461;52.440;13.540;2024-03-06T06:25:39;42.20;;;38.15;;
14738;SDS011;7461;52.440;13.540;2024-03-06T06:28:06;39.78;;;35.85;;
14738;SDS011;7461;52.440;13.540;2024-03-06T06:30:35;41.53;;;37.45;;
14738;SDS011;7461;52.440;13.540;2024-03-06T06:33:03;40.00;;;35.88;;
14738;SDS011;7461;52.440;13.540;2024-03-06T06:35:31;43.45;;;39.10;;
14738;SDS011;7461;52.440;13.540;2024-03-06T06:37:59;40.70;;;36.70;;
14738;SDS011;7461;52.440;13.540;2024-03-06T06:40:28;43.03;;;38.58;;
14738;SDS011;7461;52.440;13.540;2024-03-06T06:42:56;39.03;;;35.50;;
14738;SDS011;7461;52.440;13.540;2024-03-06T06:45:24;40.83;;;37.05;;
14738;SDS011;7461;52.440;13.540;2024-03-06T06:47:51;43.58;;;39.28;;
14738;SDS011;7461;52.440;13.540;2024-03-06T06:50:19;42.08;;;38.33;;
14738;SDS011;7461;52.440;13.540;2024-03-06T06:52:51;42.45;;;38.50;;
14738;SDS011;7461;52.440;13.540;2024-03-06T06:55:18;41.42;;;37.45;;
14738;SDS011;7461;52.440;13.540;2024-03-06T06:57:49;41.47;;;37.60;;
14738;SDS011;7461;52.440;13.540;2024-03-06T07:00:17;41.13;;;37.55;;
14738;SDS011;7461;52.440;13.540;2024-03-06T07:02:47;40.63;;;36.42;;
14738;SDS011;7461;52.440;13.540;2024-03-06T07:05:14;43.67;;;39.13;;
14738;SDS011;7461;52.440;13.540;2024-03-06T07:07:42;40.35;;;36.35;;
14738;SDS011;7461;52.440;13.540;2024-03-06T07:10:10;47.22;;;42.75;;
14738;SDS011;7461;52.440;13.540;2024-03-06T07:12:37;42.38;;;38.10;;
14738;SDS011;7461;52.440;13.540;2024-03-06T07:15:07;43.33;;;39.30;;
14738;SDS011;7461;52.440;13.540;2024-03-06T07:17:34;44.80;;;39.97;;
14738;SDS011;7461;52.440;13.540;2024-03-06T07:20:02;42.28;;;38.25;;
14738;SDS011;7461;52.440;13.540;2024-03-06T07:22:30;45.55;;;40.78;;
14738;SDS011;7461;52.440;13.540;2024-03-06T07:24:59;41.58;;;37.40;;
14738;SDS011;7461;52.440;13.540;2024-03-06T07:27:27;46.38;;;42.08;;
14738;SDS011;7461;52.440;13.540;2024-03-06T07:29:54;44.38;;;39.70;;
14738;SDS011;7461;52.440;13.540;2024-03-06T07:32:23;45.47;;;41.25;;
14738;SDS011;7461;52.440;13.540;2024-03-06T07:34:50;41.72;;;37.58;;
14738;SDS011;7461;52.440;13.540;2024-03-06T07:37:18;41.33;;;37.20;;
14738;SDS011;7461;52.440;13.540;2024-03-06T07:39:46;42.95;;;39.15;;
14738;SDS011;7461;52.440;13.540;2024-03-06T07:42:13;43.08;;;39.22;;
14738;SDS011;7461;52.440;13.540;2024-03-06T07:44:43;41.92;;;38.13;;
14738;SDS011;7461;52.440;13.540;2024-03-06T07:47:10;41.95;;;38.17;;
14738;SDS011;7461;52.440;13.540;2024-03-06T07:49:41;42.38;;;38.10;;
14738;SDS011;7461;52.440;13.540;2024-03-06T07:52:09;43.15;;;39.13;;
14738;SDS011;7461;52.440;13.540;2024-03-06T07:54:37;41.80;;;38.10;;
14738;SDS011;7461;52.440;13.540;2024-03-06T07:57:05;42.83;;;39.03;;
14738;SDS011;7461;52.440;13.540;2024-03-06T07:59:32;42.65;;;38.50;;
14738;SDS011;7461;52.440;13.540;2024-03-06T08:01:59;39.95;;;36.08;;
14738;SDS011;7461;52.440;13.540;2024-03-06T08:04:27;38.72;;;34.97;;
14738;SDS011;7461;52.440;13.540;2024-03-06T08:06:55;41.83;;;37.50;;
14738;SDS011;7461;52.440;13.540;2024-03-06T08:09:23;40.28;;;36.65;;
14738;SDS011;7461;52.440;13.540;2024-03-06T08:11:53;43.60;;;39.47;;
14738;SDS011;7461;52.440;13.540;2024-03-06T08:14:20;41.53;;;37.70;;
14738;SDS011;7461;52.440;13.540;2024-03-06T08:16:49;38.88;;;35.42;;
14738;SDS011;7461;52.440;13.540;2024-03-06T08:19:16;43.05;;;38.58;;
14738;SDS011;7461;52.440;13.540;2024-03-06T08:21:43;42.65;;;38.47;;
14738;SDS011;7461;52.440;13.540;2024-03-06T08:24:12;45.55;;;41.33;;
14738;SDS011;7461;52.440;13.540;2024-03-06T08:26:42;42.72;;;38.45;;
14738;SDS011;7461;52.440;13.540;2024-03-06T08:29:09;46.55;;;42.05;;
14738;SDS011;7461;52.440;13.540;2024-03-06T08:31:37;47.15;;;42.90;;
14738;SDS011;7461;52.440;13.540;2024-03-06T08:34:04;44.45;;;40.28;;
14738;SDS011;7461;52.440;13.540;2024-03-06T08:36:31;42.53;;;38.67;;
14738;SDS011;7461;52.440;13.540;2024-03-06T08:38:58;46.10;;;42.10;;
14738;SDS011;7461;52.440;13.540;2024-03-06T08:41:27;45.33;;;40.58;;
14738;SDS011;7461;52.440;13.540;2024-03-06T08:43:54;44.55;;;40.17;;
14738;SDS011;7461;52.440;13.540;2024-03-06T08:46:22;44.40;;;40.38;;
14738;SDS011;7461;52.440;13.540;2024-03-06T08:48:50;45.47;;;41.47;;
14738;SDS011;7461;52.440;13.540;2024-03-06T08:51:17;44.13;;;39.80;;
14738;SDS011;7461;52.440;13.540;2024-03-06T08:53:47;43.53;;;39.63;;
14738;SDS011;7461;52.440;13.540;2024-03-06T08:56:14;49.55;;;44.70;;
14738;SDS011;7461;52.440;13.540;2024-03-06T08:58:43;47.20;;;42.70;;
14738;SDS011;7461;52.440;13.540;2024-03-06T09:01:10;44.30;;;39.70;;
14738;SDS011;7461;52.440;13.540;2024-03-06T09:03:37;46.95;;;42.85;;
14738;SDS011;7461;52.440;13.540;2024-03-06T09:06:05;48.63;;;44.20;;
14738;SDS011;7461;52.440;13.540;2024-03-06T09:08:32;42.38;;;38.90;;
14738;SDS011;7461;52.440;13.540;2024-03-06T09:10:59;42.63;;;38.63;;
14738;SDS011;7461;52.440;13.540;2024-03-06T09:13:27;39.90;;;36.42;;
14738;SDS011;7461;52.440;13.540;2024-03-06T09:15:56;40.30;;;36.47;;
14738;SDS011;7461;52.440;13.540;2024-03-06T09:18:23;40.90;;;36.90;;
14738;SDS011;7461;52.440;13.540;2024-03-06T09:20:51;38.42;;;35.05;;
14738;SDS011;7461;52.440;13.540;2024-03-06T09:23:18;38.30;;;34.65;;
14738;SDS011;7461;52.440;13.540;2024-03-06T09:25:46;37.92;;;34.40;;
14738;SDS011;7461;52.440;13.540;2024-03-06T09:28:14;36.55;;;33.25;;
14738;SDS011;7461;52.440;13.540;2024-03-06T09:30:42;36.03;;;32.78;;
14738;SDS011;7461;52.440;13.540;2024-03-06T09:33:11;32.03;;;29.33;;
14738;SDS011;7461;52.440;13.540;2024-03-06T09:35:38;32.78;;;29.77;;
14738;SDS011;7461;52.440;13.540;2024-03-06T09:38:10;30.10;;;27.45;;
14738;SDS011;7461;52.440;13.540;2024-03-06T09:40:39;29.15;;;26.85;;
14738;SDS011;7461;52.440;13.540;2024-03-06T09:43:07;26.65;;;24.63;;
14738;SDS011;7461;52.440;13.540;2024-03-06T09:45:35;26.10;;;24.00;;
14738;SDS011;7461;52.440;13.540;2024-03-06T09:48:02;28.95;;;26.55;;
14738;SDS011;7461;52.440;13.540;2024-03-06T09:50:31;27.92;;;25.52;;
14738;SDS011;7461;52.440;13.540;2024-03-06T09:53:03;26.42;;;24.13;;
14738;SDS011;7461;52.440;13.540;2024-03-06T09:55:31;26.27;;;24.23;;
14738;SDS011;7461;52.440;13.540;2024-03-06T09:58:01;25.83;;;23.52;;
14738;SDS011;7461;52.440;13.540;2024-03-06T10:00:30;23.58;;;21.65;;
14738;SDS011;7461;52.440;13.540;2024-03-06T10:02:59;23.25;;;21.35;;
14738;SDS011;7461;52.440;13.540;2024-03-06T10:05:26;25.70;;;23.73;;
14738;SDS011;7461;52.440;13.540;2024-03-06T10:08:02;24.35;;;22.48;;
14738;SDS011;7461;52.440;13.540;2024-03-06T10:10:30;23.92;;;22.25;;
14738;SDS011;7461;52.440;13.540;2024-03-06T10:12:58;22.58;;;20.95;;
14738;SDS011;7461;52.440;13.540;2024-03-06T10:15:26;21.98;;;20.42;;
14738;SDS011;7461;52.440;13.540;2024-03-06T10:20:36;24.00;;;22.40;;
14738;SDS011;7461;52.440;13.540;2024-03-06T10:23:05;21.25;;;19.42;;
14738;SDS011;7461;52.440;13.540;2024-03-06T10:25:34;21.48;;;19.67;;
14738;SDS011;7461;52.440;13.540;2024-03-06T10:28:05;22.65;;;20.85;;
14738;SDS011;7461;52.440;13.540;2024-03-06T10:30:33;19.65;;;18.17;;
14738;SDS011;7461;52.440;13.540;2024-03-06T10:33:01;20.95;;;19.35;;
14738;SDS011;7461;52.440;13.540;2024-03-06T10:35:28;19.13;;;17.73;;
14738;SDS011;7461;52.440;13.540;2024-03-06T10:37:56;17.55;;;16.25;;
14738;SDS011;7461;52.440;13.540;2024-03-06T10:40:25;19.38;;;17.67;;
14738;SDS011;7461;52.440;13.540;2024-03-06T10:42:54;18.67;;;17.10;;
14738;SDS011;7461;52.440;13.540;2024-03-06T10:45:23;18.92;;;17.25;;
14738;SDS011;7461;52.440;13.540;2024-03-06T10:47:53;18.55;;;17.20;;
14738;SDS011;7461;52.440;13.540;2024-03-06T10:50:21;16.80;;;15.40;;
14738;SDS011;7461;52.440;13.540;2024-03-06T10:52:49;16.40;;;14.93;;
14738;SDS011;7461;52.440;13.540;2024-03-06T10:55:20;16.92;;;15.75;;
14738;SDS011;7461;52.440;13.540;2024-03-06T10:57:50;15.07;;;13.77;;
14738;SDS011;7461;52.440;13.540;2024-03-06T11:00:19;23.95;;;14.65;;
14738;SDS011;7461;52.440;13.540;2024-03-06T11:02:47;16.85;;;15.38;;
14738;SDS011;7461;52.440;13.540;2024-03-06T11:05:15;16.45;;;14.98;;
14738;SDS011;7461;52.440;13.540;2024-03-06T11:07:42;16.77;;;15.40;;
14738;SDS011;7461;52.440;13.540;2024-03-06T11:10:10;16.30;;;15.00;;
14738;SDS011;7461;52.440;13.540;2024-03-06T11:12:42;16.10;;;14.77;;
14738;SDS011;7461;52.440;13.540;2024-03-06T11:15:14;15.27;;;14.00;;
14738;SDS011;7461;52.440;13.540;2024-03-06T11:17:43;14.75;;;13.68;;
14738;SDS011;7461;52.440;13.540;2024-03-06T11:20:17;16.80;;;15.40;;
14738;SDS011;7461;52.440;13.540;2024-03-06T11:23:03;17.25;;;15.95;;
14738;SDS011;7461;52.440;13.540;2024-03-06T11:28:23;19.60;;;17.90;;
14738;SDS011;7461;52.440;13.540;2024-03-06T11:30:56;18.42;;;17.02;;
14738;SDS011;7461;52.440;13.540;2024-03-06T11:33:27;21.25;;;19.55;;
14738;SDS011;7461;52.440;13.540;2024-03-06T11:36:14;17.08;;;15.77;;
14738;SDS011;7461;52.440;13.540;2024-03-06T11:38:42;17.13;;;15.73;;
14738;SDS011;7461;52.440;13.540;2024-03-06T11:41:10;17.42;;;15.93;;
14738;SDS011;7461;52.440;13.540;2024-03-06T11:43:41;16.70;;;15.50;;
14738;SDS011;7461;52.440;13.540;2024-03-06T11:46:10;16.45;;;15.25;;
14738;SDS011;7461;52.440;13.540;2024-03-06T11:48:38;18.77;;;17.27;;
14738;SDS011;7461;52.440;13.540;2024-03-06T11:51:06;18.58;;;17.35;;
14738;SDS011;7461;52.440;13.540;2024-03-06T11:53:33;15.07;;;13.88;;
14738;SDS011;7461;52.440;13.540;2024-03-06T11:56:01;15.70;;;14.38;;
14738;SDS011;7461;52.440;13.540;2024-03-06T11:58:29;16.08;;;14.95;;
14738;SDS011;7461;52.440;13.540;2024-03-06T12:00:56;15.18;;;13.88;;
14738;SDS011;7461;52.440;13.540;2024-03-06T12:03:25;14.80;;;13.80;;
14738;SDS011;7461;52.440;13.540;2024-03-06T12:05:52;16.83;;;15.40;;
14738;SDS011;7461;52.440;13.540;2024-03-06T12:08:20;16.33;;;14.75;;
14738;SDS011;7461;52.440;13.540;2024-03-06T12:10:47;15.23;;;14.15;;
14738;SDS011;7461;52.440;13.540;2024-03-06T12:13:14;13.63;;;12.52;;
14738;SDS011;7461;52.440;13.540;2024-03-06T12:15:42;14.15;;;13.05;;
14738;SDS011;7461;52.440;13.540;2024-03-06T12:18:11;14.65;;;13.40;;
14738;SDS011;7461;52.440;13.540;2024-03-06T12:20:42;16.63;;;15.32;;
14738;SDS011;7461;52.440;13.540;2024-03-06T12:23:18;16.42;;;15.27;;
14738;SDS011;7461;52.440;13.540;2024-03-06T12:25:48;16.98;;;15.77;;
14738;SDS011;7461;52.440;13.540;2024-03-06T12:28:15;16.63;;;15.43;;
14738;SDS011;7461;52.440;13.540;2024-03-06T12:30:43;19.13;;;17.73;;
14738;SDS011;7461;52.440;13.540;2024-03-06T12:33:11;18.55;;;17.05;;
14738;SDS011;7461;52.440;13.540;2024-03-06T12:35:44;19.67;;;18.27;;
14738;SDS011;7461;52.440;13.540;2024-03-06T12:38:13;18.58;;;17.27;;
14738;SDS011;7461;52.440;13.540;2024-03-06T12:40:40;19.75;;;18.17;;
14738;SDS011;7461;52.440;13.540;2024-03-06T12:43:08;19.23;;;17.92;;
14738;SDS011;7461;52.440;13.540;2024-03-06T12:45:36;21.73;;;19.92;;
14738;SDS011;7461;52.440;13.540;2024-03-06T12:48:04;19.98;;;18.58;;
14738;SDS011;7461;52.440;13.540;2024-03-06T12:50:32;20.27;;;18.45;;
14738;SDS011;7461;52.440;13.540;2024-03-06T12:53:01;18.58;;;17.17;;
14738;SDS011;7461;52.440;13.540;2024-03-06T12:55:29;19.42;;;18.02;;
14738;SDS011;7461;52.440;13.540;2024-03-06T12:57:57;20.45;;;19.13;;
14738;SDS011;7461;52.440;13.540;2024-03-06T13:00:24;19.52;;;17.90;;
14738;SDS011;7461;52.440;13.540;2024-03-06T13:02:51;18.98;;;17.55;;
14738;SDS011;7461;52.440;13.540;2024-03-06T13:05:19;19.95;;;18.33;;
14738;SDS011;7461;52.440;13.540;2024-03-06T13:07:46;22.77;;;21.08;;
14738;SDS011;7461;52.440;13.540;2024-03-06T13:10:15;23.08;;;21.38;;
14738;SDS011;7461;52.440;13.540;2024-03-06T13:12:42;21.67;;;20.08;;
14738;SDS011;7461;52.440;13.540;2024-03-06T13:15:09;23.17;;;21.58;;
14738;SDS011;7461;52.440;13.540;2024-03-06T13:17:36;26.17;;;24.38;;
14738;SDS011;7461;52.440;13.540;2024-03-06T13:20:05;27.05;;;25.20;;
14738;SDS011;7461;52.440;13.540;2024-03-06T13:22:34;27.58;;;25.48;;
14738;SDS011;7461;52.440;13.540;2024-03-06T13:25:01;28.17;;;26.17;;
14738;SDS011;7461;52.440;13.540;2024-03-06T13:27:30;27.70;;;25.58;;
14738;SDS011;7461;52.440;13.540;2024-03-06T13:29:57;29.38;;;27.17;;
14738;SDS011;7461;52.440;13.540;2024-03-06T13:32:25;29.70;;;27.52;;
14738;SDS011;7461;52.440;13.540;2024-03-06T13:34:53;30.63;;;28.15;;
14738;SDS011;7461;52.440;13.540;2024-03-06T13:37:21;30.45;;;28.15;;
14738;SDS011;7461;52.440;13.540;2024-03-06T13:39:48;32.05;;;29.55;;
14738;SDS011;7461;52.440;13.540;2024-03-06T13:42:17;32.33;;;29.38;;
14738;SDS011;7461;52.440;13.540;2024-03-06T13:44:46;32.42;;;29.92;;
14738;SDS011;7461;52.440;13.540;2024-03-06T13:47:14;31.88;;;29.30;;
14738;SDS011;7461;52.440;13.540;2024-03-06T13:49:42;28.42;;;26.27;;
14738;SDS011;7461;52.440;13.540;2024-03-06T13:52:10;29.45;;;27.23;;
14738;SDS011;7461;52.440;13.540;2024-03-06T13:54:38;29.48;;;27.38;;
14738;SDS011;7461;52.440;13.540;2024-03-06T13:57:06;26.80;;;24.85;;
14738;SDS011;7461;52.440;13.540;2024-03-06T13:59:33;26.80;;;24.52;;
14738;SDS011;7461;52.440;13.540;2024-03-06T14:02:02;25.52;;;23.13;;
14738;SDS011;7461;52.440;13.540;2024-03-06T14:04:30;25.40;;;23.17;;
14738;SDS011;7461;52.440;13.540;2024-03-06T14:06:59;21.67;;;20.05;;
14738;SDS011;7461;52.440;13.540;2024-03-06T14:09:26;22.90;;;21.02;;
14738;SDS011;7461;52.440;13.540;2024-03-06T14:11:54;21.13;;;19.45;;
14738;SDS011;7461;52.440;13.540;2024-03-06T14:14:25;22.30;;;20.50;;
14738;SDS011;7461;52.440;13.540;2024-03-06T14:16:54;22.25;;;20.50;;
14738;SDS011;7461;52.440;13.540;2024-03-06T14:19:27;21.33;;;19.83;;
14738;SDS011;7461;52.440;13.540;2024-03-06T14:21:54;22.65;;;20.83;;
14738;SDS011;7461;52.440;13.540;2024-03-06T14:24:23;20.35;;;18.83;;
14738;SDS011;7461;52.440;13.540;2024-03-06T14:26:50;22.35;;;20.17;;
14738;SDS011;7461;52.440;13.540;2024-03-06T14:29:18;21.25;;;19.40;;
14738;SDS011;7461;52.440;13.540;2024-03-06T14:31:46;22.85;;;21.05;;